sensor_id;sensor_type;location;lat;lon;timestamp;P1;durP1;ratioP1;P2;durP2;ratioP2
7031;SDS011;3557;48.880;8.328;2023-07-20T00:00:10;3.85;;;2.28;;
7031;SDS011;3557;48.880;8.328;2023-07-20T00:02:39;4.43;;;2.20;;
7031;SDS011;3557;48.880;8.328;2023-07-20T00:05:06;3.40;;;2.50;;
7031;SDS011;3557;48.880;8.328;2023-07-20T00:07:35;3.15;;;2.20;;
7031;SDS011;3557;48.880;8.328;2023-07-20T00:10:03;4.93;;;2.40;;
7031;SDS011;3557;48.880;8.328;2023-07-20T00:12:31;7.97;;;2.30;;
7031;SDS011;3557;48.880;8.328;2023-07-20T00:14:58;2.55;;;1.98;;
7031;SDS011;3557;48.880;8.328;2023-07-20T00:17:25;3.33;;;2.13;;
7031;SDS011;3557;48.880;8.328;2023-07-20T00:19:53;5.38;;;2.30;;
7031;SDS011;3557;48.880;8.328;2023-07-20T00:22:20;3.80;;;2.25;;
7031;SDS011;3557;48.880;8.328;2023-07-20T00:24:49;6.60;;;2.30;;
7031;SDS011;3557;48.880;8.328;2023-07-20T00:27:16;3.30;;;2.28;;
7031;SDS011;3557;48.880;8.328;2023-07-20T00:29:44;3.80;;;2.00;;
7031;SDS011;3557;48.880;8.328;2023-07-20T00:32:11;2.85;;;2.10;;
7031;SDS011;3557;48.880;8.328;2023-07-20T00:34:38;2.83;;;2.20;;
7031;SDS011;3557;48.880;8.328;2023-07-20T00:37:07;2.80;;;2.15;;
7031;SDS011;3557;48.880;8.328;2023-07-20T00:39:35;4.35;;;2.25;;
7031;SDS011;3557;48.880;8.328;2023-07-20T00:42:04;5.72;;;2.30;;
7031;SDS011;3557;48.880;8.328;2023-07-20T00:44:32;3.75;;;2.30;;
7031;SDS011;3557;48.880;8.328;2023-07-20T00:47:00;2.72;;;2.10;;
7031;SDS011;3557;48.880;8.328;2023-07-20T00:49:27;3.80;;;2.35;;
7031;SDS011;3557;48.880;8.328;2023-07-20T00:51:56;2.88;;;2.08;;
7031;SDS011;3557;48.880;8.328;2023-07-20T00:54:24;7.13;;;2.17;;
7031;SDS011;3557;48.880;8.328;2023-07-20T00:56:52;5.20;;;2.63;;
7031;SDS011;3557;48.880;8.328;2023-07-20T00:59:21;2.30;;;2.10;;
7031;SDS011;3557;48.880;8.328;2023-07-20T01:01:50;4.95;;;2.60;;
7031;SDS011;3557;48.880;8.328;2023-07-20T01:04:18;4.93;;;2.55;;
7031;SDS011;3557;48.880;8.328;2023-07-20T01:06:47;3.25;;;2.22;;
7031;SDS011;3557;48.880;8.328;2023-07-20T01:09:24;4.85;;;2.55;;
7031;SDS011;3557;48.880;8.328;2023-07-20T01:11:57;7.10;;;2.28;;
7031;SDS011;3557;48.880;8.328;2023-07-20T01:14:32;8.25;;;3.20;;
7031;SDS011;3557;48.880;8.328;2023-07-20T01:17:01;4.57;;;2.30;;
7031;SDS011;3557;48.880;8.328;2023-07-20T01:19:29;3.17;;;2.03;;
7031;SDS011;3557;48.880;8.328;2023-07-20T01:21:59;7.25;;;2.20;;
7031;SDS011;3557;48.880;8.328;2023-07-20T01:24:44;3.40;;;2.20;;
7031;SDS011;3557;48.880;8.328;2023-07-20T01:30:52;5.57;;;2.13;;
7031;SDS011;3557;48.880;8.328;2023-07-20T01:33:27;4.68;;;2.28;;
7031;SDS011;3557;48.880;8.328;2023-07-20T01:35:56;3.20;;;1.98;;
7031;SDS011;3557;48.880;8.328;2023-07-20T01:38:27;3.00;;;2.08;;
7031;SDS011;3557;48.880;8.328;2023-07-20T01:40:55;4.15;;;2.25;;
7031;SDS011;3557;48.880;8.328;2023-07-20T01:43:24;4.22;;;2.10;;
7031;SDS011;3557;48.880;8.328;2023-07-20T01:45:51;2.85;;;1.98;;
7031;SDS011;3557;48.880;8.328;2023-07-20T01:48:18;2.20;;;2.00;;
7031;SDS011;3557;48.880;8.328;2023-07-20T01:50:47;5.50;;;2.33;;
7031;SDS011;3557;48.880;8.328;2023-07-20T01:53:14;2.85;;;2.25;;
7031;SDS011;3557;48.880;8.328;2023-07-20T01:55:42;2.20;;;2.00;;
7031;SDS011;3557;48.880;8.328;2023-07-20T01:58:09;2.72;;;2.00;;
7031;SDS011;3557;48.880;8.328;2023-07-20T02:00:37;4.90;;;2.17;;
7031;SDS011;3557;48.880;8.328;2023-07-20T02:03:04;2.70;;;2.30;;
7031;SDS011;3557;48.880;8.328;2023-07-20T02:05:32;2.30;;;2.10;;
7031;SDS011;3557;48.880;8.328;2023-07-20T02:08:00;3.97;;;2.10;;
7031;SDS011;3557;48.880;8.328;2023-07-20T02:10:28;3.33;;;2.70;;
7031;SDS011;3557;48.880;8.328;2023-07-20T02:12:56;3.95;;;2.03;;
7031;SDS011;3557;48.880;8.328;2023-07-20T02:15:23;4.28;;;2.35;;
7031;SDS011;3557;48.880;8.328;2023-07-20T02:17:50;3.28;;;2.10;;
7031;SDS011;3557;48.880;8.328;2023-07-20T02:20:18;2.95;;;2.05;;
7031;SDS011;3557;48.880;8.328;2023-07-20T02:22:45;4.50;;;2.20;;
7031;SDS011;3557;48.880;8.328;2023-07-20T02:25:14;3.78;;;2.35;;
7031;SDS011;3557;48.880;8.328;2023-07-20T02:27:42;3.60;;;2.20;;
7031;SDS011;3557;48.880;8.328;2023-07-20T02:30:09;4.07;;;2.22;;
7031;SDS011;3557;48.880;8.328;2023-07-20T02:32:38;2.75;;;2.00;;
7031;SDS011;3557;48.880;8.328;2023-07-20T02:35:06;3.65;;;2.20;;
7031;SDS011;3557;48.880;8.328;2023-07-20T02:37:34;2.38;;;2.03;;
7031;SDS011;3557;48.880;8.328;2023-07-20T02:40:02;2.80;;;2.13;;
7031;SDS011;3557;48.880;8.328;2023-07-20T02:42:31;4.35;;;2.13;;
7031;SDS011;3557;48.880;8.328;2023-07-20T02:44:58;4.47;;;2.10;;
7031;SDS011;3557;48.880;8.328;2023-07-20T02:47:26;3.30;;;2.45;;
7031;SDS011;3557;48.880;8.328;2023-07-20T02:49:53;6.97;;;2.20;;
7031;SDS011;3557;48.880;8.328;2023-07-20T02:52:21;2.78;;;2.30;;
7031;SDS011;3557;48.880;8.328;2023-07-20T02:54:48;4.15;;;2.30;;
7031;SDS011;3557;48.880;8.328;2023-07-20T02:57:16;3.60;;;2.30;;
7031;SDS011;3557;48.880;8.328;2023-07-20T02:59:44;3.22;;;2.35;;
7031;SDS011;3557;48.880;8.328;2023-07-20T03:02:12;3.92;;;2.05;;
7031;SDS011;3557;48.880;8.328;2023-07-20T03:04:40;2.83;;;2.17;;
7031;SDS011;3557;48.880;8.328;2023-07-20T03:07:07;3.53;;;2.10;;
7031;SDS011;3557;48.880;8.328;2023-07-20T03:09:35;5.05;;;2.58;;
7031;SDS011;3557;48.880;8.328;2023-07-20T03:12:02;2.78;;;2.25;;
7031;SDS011;3557;48.880;8.328;2023-07-20T03:14:31;4.50;;;2.20;;
7031;SDS011;3557;48.880;8.328;2023-07-20T03:16:59;5.70;;;2.22;;
7031;SDS011;3557;48.880;8.328;2023-07-20T03:19:27;3.03;;;2.10;;
7031;SDS011;3557;48.880;8.328;2023-07-20T03:21:54;8.02;;;2.55;;
7031;SDS011;3557;48.880;8.328;2023-07-20T03:24:22;4.72;;;2.10;;
7031;SDS011;3557;48.880;8.328;2023-07-20T03:26:50;5.10;;;2.30;;
7031;SDS011;3557;48.880;8.328;2023-07-20T03:29:18;4.97;;;2.22;;
7031;SDS011;3557;48.880;8.328;2023-07-20T03:31:46;3.65;;;2.30;;
7031;SDS011;3557;48.880;8.328;2023-07-20T03:34:15;4.10;;;2.33;;
7031;SDS011;3557;48.880;8.328;2023-07-20T03:36:42;2.65;;;2.10;;
7031;SDS011;3557;48.880;8.328;2023-07-20T03:39:11;3.33;;;2.45;;
7031;SDS011;3557;48.880;8.328;2023-07-20T03:41:39;6.28;;;2.10;;
7031;SDS011;3557;48.880;8.328;2023-07-20T03:44:06;2.80;;;2.10;;
7031;SDS011;3557;48.880;8.328;2023-07-20T03:46:33;6.70;;;2.50;;
7031;SDS011;3557;48.880;8.328;2023-07-20T03:49:01;5.00;;;2.15;;
7031;SDS011;3557;48.880;8.328;2023-07-20T03:51:30;5.18;;;2.20;;
7031;SDS011;3557;48.880;8.328;2023-07-20T03:53:57;5.78;;;2.60;;
7031;SDS011;3557;48.880;8.328;2023-07-20T03:56:25;6.45;;;2.40;;
7031;SDS011;3557;48.880;8.328;2023-07-20T03:58:52;2.72;;;2.33;;
7031;SDS011;3557;48.880;8.328;2023-07-20T04:01:20;3.47;;;2.30;;
7031;SDS011;3557;48.880;8.328;2023-07-20T04:03:47;3.28;;;2.33;;
7031;SDS011;3557;48.880;8.328;2023-07-20T04:06:15;3.13;;;2.28;;
7031;SDS011;3557;48.880;8.328;2023-07-20T04:08:44;4.18;;;2.30;;
7031;SDS011;3557;48.880;8.328;2023-07-20T04:11:12;3.28;;;2.22;;
7031;SDS011;3557;48.880;8.328;2023-07-20T04:13:40;5.70;;;2.47;;
7031;SDS011;3557;48.880;8.328;2023-07-20T04:16:08;7.47;;;2.90;;
7031;SDS011;3557;48.880;8.328;2023-07-20T04:18:35;4.93;;;2.70;;
7031;SDS011;3557;48.880;8.328;2023-07-20T04:21:03;4.40;;;2.22;;
7031;SDS011;3557;48.880;8.328;2023-07-20T04:23:30;6.93;;;2.40;;
7031;SDS011;3557;48.880;8.328;2023-07-20T04:25:59;3.70;;;2.22;;
7031;SDS011;3557;48.880;8.328;2023-07-20T04:28:27;5.65;;;2.40;;
7031;SDS011;3557;48.880;8.328;2023-07-20T04:30:54;3.85;;;2.42;;
7031;SDS011;3557;48.880;8.328;2023-07-20T04:33:21;4.47;;;2.35;;
7031;SDS011;3557;48.880;8.328;2023-07-20T04:35:50;5.72;;;2.70;;
7031;SDS011;3557;48.880;8.328;2023-07-20T04:38:38;2.97;;;2.30;;
7031;SDS011;3557;48.880;8.328;2023-07-20T04:41:19;5.05;;;2.28;;
7031;SDS011;3557;48.880;8.328;2023-07-20T04:43:48;5.82;;;2.40;;
7031;SDS011;3557;48.880;8.328;2023-07-20T04:46:25;5.05;;;2.20;;
7031;SDS011;3557;48.880;8.328;2023-07-20T04:48:52;4.10;;;2.38;;
7031;SDS011;3557;48.880;8.328;2023-07-20T04:51:21;7.13;;;2.53;;
7031;SDS011;3557;48.880;8.328;2023-07-20T04:53:52;6.30;;;2.50;;
7031;SDS011;3557;48.880;8.328;2023-07-20T04:56:21;2.78;;;2.05;;
7031;SDS011;3557;48.880;8.328;2023-07-20T04:58:50;7.85;;;2.47;;
7031;SDS011;3557;48.880;8.328;2023-07-20T05:01:17;4.70;;;2.33;;
7031;SDS011;3557;48.880;8.328;2023-07-20T05:03:44;5.45;;;2.20;;
7031;SDS011;3557;48.880;8.328;2023-07-20T05:06:12;3.33;;;2.20;;
7031;SDS011;3557;48.880;8.328;2023-07-20T05:08:39;2.00;;;1.80;;
7031;SDS011;3557;48.880;8.328;2023-07-20T05:11:07;4.43;;;2.10;;
7031;SDS011;3557;48.880;8.328;2023-07-20T05:13:36;6.07;;;2.75;;
7031;SDS011;3557;48.880;8.328;2023-07-20T05:16:03;5.93;;;2.00;;
7031;SDS011;3557;48.880;8.328;2023-07-20T05:18:32;4.30;;;2.30;;
7031;SDS011;3557;48.880;8.328;2023-07-20T05:20:59;4.85;;;2.15;;
7031;SDS011;3557;48.880;8.328;2023-07-20T05:23:27;2.92;;;1.95;;
7031;SDS011;3557;48.880;8.328;2023-07-20T05:25:54;6.70;;;2.10;;
7031;SDS011;3557;48.880;8.328;2023-07-20T05:28:22;4.15;;;2.13;;
7031;SDS011;3557;48.880;8.328;2023-07-20T05:30:51;2.72;;;1.90;;
7031;SDS011;3557;48.880;8.328;2023-07-20T05:33:18;5.82;;;2.03;;
7031;SDS011;3557;48.880;8.328;2023-07-20T05:35:46;3.47;;;2.10;;
7031;SDS011;3557;48.880;8.328;2023-07-20T05:38:13;3.28;;;2.10;;
7031;SDS011;3557;48.880;8.328;2023-07-20T05:40:41;4.13;;;2.00;;
7031;SDS011;3557;48.880;8.328;2023-07-20T05:43:10;3.95;;;2.00;;
7031;SDS011;3557;48.880;8.328;2023-07-20T05:45:37;4.20;;;2.10;;
7031;SDS011;3557;48.880;8.328;2023-07-20T05:48:10;6.07;;;2.13;;
7031;SDS011;3557;48.880;8.328;2023-07-20T05:50:38;6.18;;;2.17;;
7031;SDS011;3557;48.880;8.328;2023-07-20T05:53:09;4.82;;;2.22;;
7031;SDS011;3557;48.880;8.328;2023-07-20T05:55:36;3.95;;;2.17;;
7031;SDS011;3557;48.880;8.328;2023-07-20T05:58:04;2.90;;;1.95;;
7031;SDS011;3557;48.880;8.328;2023-07-20T06:00:32;4.07;;;2.30;;
7031;SDS011;3557;48.880;8.328;2023-07-20T06:02:59;4.35;;;2.20;;
7031;SDS011;3557;48.880;8.328;2023-07-20T06:05:29;3.72;;;2.10;;
7031;SDS011;3557;48.880;8.328;2023-07-20T06:07:56;4.60;;;2.17;;
7031;SDS011;3557;48.880;8.328;2023-07-20T06:10:25;4.25;;;2.20;;
7031;SDS011;3557;48.880;8.328;2023-07-20T06:12:53;5.35;;;2.30;;
7031;SDS011;3557;48.880;8.328;2023-07-20T06:15:24;4.15;;;2.33;;
7031;SDS011;3557;48.880;8.328;2023-07-20T06:17:53;4.93;;;2.30;;
7031;SDS011;3557;48.880;8.328;2023-07-20T06:20:22;3.58;;;2.50;;
7031;SDS011;3557;48.880;8.328;2023-07-20T06:22:51;6.13;;;2.28;;
7031;SDS011;3557;48.880;8.328;2023-07-20T06:25:19;4.28;;;2.22;;
7031;SDS011;3557;48.880;8.328;2023-07-20T06:27:49;3.58;;;2.30;;
7031;SDS011;3557;48.880;8.328;2023-07-20T06:30:17;4.90;;;2.33;;
7031;SDS011;3557;48.880;8.328;2023-07-20T06:32:44;6.03;;;2.40;;
7031;SDS011;3557;48.880;8.328;2023-07-20T06:35:12;4.15;;;2.42;;
7031;SDS011;3557;48.880;8.328;2023-07-20T06:37:40;7.28;;;2.40;;
7031;SDS011;3557;48.880;8.328;2023-07-20T06:40:09;2.90;;;2.08;;
7031;SDS011;3557;48.880;8.328;2023-07-20T06:42:37;7.40;;;2.30;;
7031;SDS011;3557;48.880;8.328;2023-07-20T06:45:05;7.22;;;2.42;;
7031;SDS011;3557;48.880;8.328;2023-07-20T06:47:34;4.82;;;2.55;;
7031;SDS011;3557;48.880;8.328;2023-07-20T06:50:01;6.40;;;2.53;;
7031;SDS011;3557;48.880;8.328;2023-07-20T06:52:28;6.22;;;2.60;;
7031;SDS011;3557;48.880;8.328;2023-07-20T06:54:56;8.32;;;2.53;;
7031;SDS011;3557;48.880;8.328;2023-07-20T06:57:25;4.57;;;2.50;;
7031;SDS011;3557;48.880;8.328;2023-07-20T06:59:52;5.70;;;2.20;;
7031;SDS011;3557;48.880;8.328;2023-07-20T07:02:19;4.80;;;2.50;;
7031;SDS011;3557;48.880;8.328;2023-07-20T07:04:47;3.10;;;2.20;;
7031;SDS011;3557;48.880;8.328;2023-07-20T07:07:14;6.18;;;2.45;;
7031;SDS011;3557;48.880;8.328;2023-07-20T07:09:42;5.18;;;2.35;;
7031;SDS011;3557;48.880;8.328;2023-07-20T07:12:09;7.07;;;2.20;;
7031;SDS011;3557;48.880;8.328;2023-07-20T07:14:38;4.10;;;2.30;;
7031;SDS011;3557;48.880;8.328;2023-07-20T07:17:05;6.15;;;2.38;;
7031;SDS011;3557;48.880;8.328;2023-07-20T07:19:33;6.95;;;2.70;;
7031;SDS011;3557;48.880;8.328;2023-07-20T07:22:01;4.53;;;2.70;;
7031;SDS011;3557;48.880;8.328;2023-07-20T07:24:29;2.42;;;2.22;;
7031;SDS011;3557;48.880;8.328;2023-07-20T07:26:58;4.88;;;2.30;;
7031;SDS011;3557;48.880;8.328;2023-07-20T07:29:26;7.88;;;2.65;;
7031;SDS011;3557;48.880;8.328;2023-07-20T07:31:55;4.30;;;2.22;;
7031;SDS011;3557;48.880;8.328;2023-07-20T07:34:23;3.03;;;2.28;;
7031;SDS011;3557;48.880;8.328;2023-07-20T07:36:51;6.55;;;2.20;;
7031;SDS011;3557;48.880;8.328;2023-07-20T07:39:19;5.07;;;2.33;;
7031;SDS011;3557;48.880;8.328;2023-07-20T07:41:46;4.35;;;2.35;;
7031;SDS011;3557;48.880;8.328;2023-07-20T07:44:14;6.05;;;2.33;;
7031;SDS011;3557;48.880;8.328;2023-07-20T07:46:41;2.53;;;2.08;;
7031;SDS011;3557;48.880;8.328;2023-07-20T07:49:10;4.82;;;2.15;;
7031;SDS011;3557;48.880;8.328;2023-07-20T07:51:37;4.10;;;1.85;;
7031;SDS011;3557;48.880;8.328;2023-07-20T07:54:05;2.97;;;2.00;;
7031;SDS011;3557;48.880;8.328;2023-07-20T07:56:32;5.85;;;1.90;;
7031;SDS011;3557;48.880;8.328;2023-07-20T07:58:59;5.28;;;2.17;;
7031;SDS011;3557;48.880;8.328;2023-07-20T08:01:28;2.97;;;2.20;;
7031;SDS011;3557;48.880;8.328;2023-07-20T08:03:55;5.65;;;2.00;;
7031;SDS011;3557;48.880;8.328;2023-07-20T08:06:24;21.75;;;2.60;;
7031;SDS011;3557;48.880;8.328;2023-07-20T08:08:51;3.42;;;1.98;;
7031;SDS011;3557;48.880;8.328;2023-07-20T08:11:19;3.63;;;2.03;;
7031;SDS011;3557;48.880;8.328;2023-07-20T08:13:46;3.42;;;2.10;;
7031;SDS011;3557;48.880;8.328;2023-07-20T08:16:13;3.65;;;2.28;;
7031;SDS011;3557;48.880;8.328;2023-07-20T08:18:41;7.38;;;1.90;;
7031;SDS011;3557;48.880;8.328;2023-07-20T08:21:10;7.18;;;2.20;;
7031;SDS011;3557;48.880;8.328;2023-07-20T08:23:39;5.22;;;1.95;;
7031;SDS011;3557;48.880;8.328;2023-07-20T08:26:07;5.70;;;2.00;;
7031;SDS011;3557;48.880;8.328;2023-07-20T08:28:34;3.88;;;1.83;;
7031;SDS011;3557;48.880;8.328;2023-07-20T08:31:02;2.38;;;1.80;;
7031;SDS011;3557;48.880;8.328;2023-07-20T08:33:31;3.92;;;1.80;;
7031;SDS011;3557;48.880;8.328;2023-07-20T08:36:00;4.93;;;1.73;;
7031;SDS011;3557;48.880;8.328;2023-07-20T08:38:28;3.78;;;1.70;;
7031;SDS011;3557;48.880;8.328;2023-07-20T08:40:57;4.55;;;1.60;;
7031;SDS011;3557;48.880;8.328;2023-07-20T08:43:25;6.20;;;2.00;;
7031;SDS011;3557;48.880;8.328;2023-07-20T08:45:53;5.97;;;2.20;;
7031;SDS011;3557;48.880;8.328;2023-07-20T08:48:22;3.17;;;1.60;;
7031;SDS011;3557;48.880;8.328;2023-07-20T08:50:50;3.80;;;2.00;;
7031;SDS011;3557;48.880;8.328;2023-07-20T08:53:19;2.90;;;2.28;;
7031;SDS011;3557;48.880;8.328;2023-07-20T08:55:48;3.78;;;2.00;;
7031;SDS011;3557;48.880;8.328;2023-07-20T08:58:19;3.65;;;1.80;;
7031;SDS011;3557;48.880;8.328;2023-07-20T09:00:47;2.25;;;1.80;;
7031;SDS011;3557;48.880;8.328;2023-07-20T09:03:16;2.63;;;1.60;;
7031;SDS011;3557;48.880;8.328;2023-07-20T09:05:44;3.42;;;1.60;;
7031;SDS011;3557;48.880;8.328;2023-07-20T09:08:12;4.32;;;1.95;;
7031;SDS011;3557;48.880;8.328;2023-07-20T09:10:39;3.70;;;1.85;;
7031;SDS011;3557;48.880;8.328;2023-07-20T09:13:06;5.70;;;1.92;;
7031;SDS011;3557;48.880;8.328;2023-07-20T09:15:35;2.78;;;1.88;;
7031;SDS011;3557;48.880;8.328;2023-07-20T09:18:03;3.85;;;1.80;;
7031;SDS011;3557;48.880;8.328;2023-07-20T09:20:31;4.38;;;2.25;;
7031;SDS011;3557;48.880;8.328;2023-07-20T09:22:59;3.22;;;2.00;;
7031;SDS011;3557;48.880;8.328;2023-07-20T09:25:30;5.07;;;2.35;;
7031;SDS011;3557;48.880;8.328;2023-07-20T09:28:01;6.63;;;2.10;;
7031;SDS011;3557;48.880;8.328;2023-07-20T09:30:29;4.32;;;1.73;;
7031;SDS011;3557;48.880;8.328;2023-07-20T09:32:58;8.05;;;1.70;;
7031;SDS011;3557;48.880;8.328;2023-07-20T09:35:26;4.82;;;2.00;;
7031;SDS011;3557;48.880;8.328;2023-07-20T09:37:54;4.80;;;1.80;;
7031;SDS011;3557;48.880;8.328;2023-07-20T09:40:25;3.85;;;1.85;;
7031;SDS011;3557;48.880;8.328;2023-07-20T09:42:54;2.10;;;1.77;;
7031;SDS011;3557;48.880;8.328;2023-07-20T09:45:27;2.08;;;1.70;;
7031;SDS011;3557;48.880;8.328;2023-07-20T09:48:04;1.70;;;1.50;;
7031;SDS011;3557;48.880;8.328;2023-07-20T09:50:32;2.70;;;1.90;;
7031;SDS011;3557;48.880;8.328;2023-07-20T09:53:00;3.95;;;1.80;;
7031;SDS011;3557;48.880;8.328;2023-07-20T09:55:28;4.85;;;1.85;;
7031;SDS011;3557;48.880;8.328;2023-07-20T09:57:56;3.22;;;2.15;;
7031;SDS011;3557;48.880;8.328;2023-07-20T10:00:23;3.33;;;1.70;;
7031;SDS011;3557;48.880;8.328;2023-07-20T10:02:51;2.63;;;1.65;;
7031;SDS011;3557;48.880;8.328;2023-07-20T10:05:20;2.70;;;1.50;;
7031;SDS011;3557;48.880;8.328;2023-07-20T10:07:48;3.78;;;1.73;;
7031;SDS011;3557;48.880;8.328;2023-07-20T10:10:17;2.40;;;1.50;;
7031;SDS011;3557;48.880;8.328;2023-07-20T10:12:47;2.33;;;1.80;;
7031;SDS011;3557;48.880;8.328;2023-07-20T10:15:18;3.45;;;1.83;;
7031;SDS011;3557;48.880;8.328;2023-07-20T10:17:58;7.47;;;1.83;;
7031;SDS011;3557;48.880;8.328;2023-07-20T10:20:30;3.90;;;1.95;;
7031;SDS011;3557;48.880;8.328;2023-07-20T10:22:59;2.38;;;1.90;;
7031;SDS011;3557;48.880;8.328;2023-07-20T10:25:27;3.55;;;1.95;;
7031;SDS011;3557;48.880;8.328;2023-07-20T10:27:56;5.20;;;1.83;;
7031;SDS011;3557;48.880;8.328;2023-07-20T10:30:24;2.88;;;1.90;;
7031;SDS011;3557;48.880;8.328;2023-07-20T10:32:52;1.90;;;1.70;;
7031;SDS011;3557;48.880;8.328;2023-07-20T10:35:19;2.13;;;1.67;;
7031;SDS011;3557;48.880;8.328;2023-07-20T10:37:49;3.08;;;1.70;;
7031;SDS011;3557;48.880;8.328;2023-07-20T10:43:08;4.47;;;1.80;;
7031;SDS011;3557;48.880;8.328;2023-07-20T10:45:36;2.75;;;1.63;;
7031;SDS011;3557;48.880;8.328;2023-07-20T10:48:14;6.13;;;1.85;;
7031;SDS011;3557;48.880;8.328;2023-07-20T10:50:44;3.33;;;1.95;;
7031;SDS011;3557;48.880;8.328;2023-07-20T10:53:34;5.60;;;1.65;;
7031;SDS011;3557;48.880;8.328;2023-07-20T10:56:08;2.92;;;1.52;;
7031;SDS011;3557;48.880;8.328;2023-07-20T10:58:38;3.40;;;1.55;;
7031;SDS011;3557;48.880;8.328;2023-07-20T11:01:07;3.88;;;1.52;;
7031;SDS011;3557;48.880;8.328;2023-07-20T11:03:36;1.60;;;1.50;;
7031;SDS011;3557;48.880;8.328;2023-07-20T11:09:06;1.65;;;1.40;;
7031;SDS011;3557;48.880;8.328;2023-07-20T11:11:36;3.75;;;1.40;;
7031;SDS011;3557;48.880;8.328;2023-07-20T11:14:05;4.45;;;1.40;;
7031;SDS011;3557;48.880;8.328;2023-07-20T11:16:35;3.53;;;1.50;;
7031;SDS011;3557;48.880;8.328;2023-07-20T11:19:05;4.93;;;1.50;;
7031;SDS011;3557;48.880;8.328;2023-07-20T11:21:40;3.13;;;1.67;;
7031;SDS011;3557;48.880;8.328;2023-07-20T11:24:10;2.97;;;1.50;;
7031;SDS011;3557;48.880;8.328;2023-07-20T11:26:45;2.33;;;1.50;;
7031;SDS011;3557;48.880;8.328;2023-07-20T11:29:15;2.88;;;1.55;;
7031;SDS011;3557;48.880;8.328;2023-07-20T11:31:43;2.92;;;1.60;;
7031;SDS011;3557;48.880;8.328;2023-07-20T11:34:12;3.40;;;1.30;;
7031;SDS011;3557;48.880;8.328;2023-07-20T11:36:43;1.92;;;1.50;;
7031;SDS011;3557;48.880;8.328;2023-07-20T11:39:13;2.03;;;1.42;;
7031;SDS011;3557;48.880;8.328;2023-07-20T11:41:43;6.82;;;1.50;;
7031;SDS011;3557;48.880;8.328;2023-07-20T11:44:12;2.30;;;1.40;;
7031;SDS011;3557;48.880;8.328;2023-07-20T11:46:40;1.60;;;1.30;;
7031;SDS011;3557;48.880;8.328;2023-07-20T11:49:09;3.70;;;1.40;;
7031;SDS011;3557;48.880;8.328;2023-07-20T11:51:37;2.53;;;1.40;;
7031;SDS011;3557;48.880;8.328;2023-07-20T11:54:06;1.65;;;1.40;;
7031;SDS011;3557;48.880;8.328;2023-07-20T11:56:36;4.95;;;1.55;;
7031;SDS011;3557;48.880;8.328;2023-07-20T11:59:09;1.90;;;1.30;;
7031;SDS011;3557;48.880;8.328;2023-07-20T12:01:36;1.60;;;1.30;;
7031;SDS011;3557;48.880;8.328;2023-07-20T12:04:03;2.58;;;1.48;;
7031;SDS011;3557;48.880;8.328;2023-07-20T12:06:32;2.58;;;1.65;;
7031;SDS011;3557;48.880;8.328;2023-07-20T12:08:59;2.45;;;1.40;;
7031;SDS011;3557;48.880;8.328;2023-07-20T12:11:30;1.67;;;1.30;;
7031;SDS011;3557;48.880;8.328;2023-07-20T12:14:00;1.40;;;1.30;;
7031;SDS011;3557;48.880;8.328;2023-07-20T12:16:28;2.38;;;1.40;;
7031;SDS011;3557;48.880;8.328;2023-07-20T12:19:00;1.83;;;1.38;;
7031;SDS011;3557;48.880;8.328;2023-07-20T12:21:28;1.98;;;1.40;;
7031;SDS011;3557;48.880;8.328;2023-07-20T12:23:56;1.77;;;1.50;;
7031;SDS011;3557;48.880;8.328;2023-07-20T12:26:24;3.38;;;1.48;;
7031;SDS011;3557;48.880;8.328;2023-07-20T12:28:51;1.60;;;1.33;;
7031;SDS011;3557;48.880;8.328;2023-07-20T12:31:20;1.90;;;1.40;;
7031;SDS011;3557;48.880;8.328;2023-07-20T12:33:49;1.77;;;1.45;;
7031;SDS011;3557;48.880;8.328;2023-07-20T12:36:16;1.77;;;1.40;;
7031;SDS011;3557;48.880;8.328;2023-07-20T12:38:44;1.90;;;1.20;;
7031;SDS011;3557;48.880;8.328;2023-07-20T12:41:12;2.05;;;1.38;;
7031;SDS011;3557;48.880;8.328;2023-07-20T12:43:40;2.45;;;1.40;;
7031;SDS011;3557;48.880;8.328;2023-07-20T12:46:08;2.13;;;1.30;;
7031;SDS011;3557;48.880;8.328;2023-07-20T12:48:38;1.50;;;1.40;;
7031;SDS011;3557;48.880;8.328;2023-07-20T12:51:07;1.40;;;1.30;;
7031;SDS011;3557;48.880;8.328;2023-07-20T12:53:34;1.40;;;1.30;;
7031;SDS011;3557;48.880;8.328;2023-07-20T12:56:02;1.83;;;1.40;;
7031;SDS011;3557;48.880;8.328;2023-07-20T12:58:30;2.08;;;1.30;;
7031;SDS011;3557;48.880;8.328;2023-07-20T13:00:58;1.90;;;1.42;;
7031;SDS011;3557;48.880;8.328;2023-07-20T13:03:25;2.25;;;1.38;;
7031;SDS011;3557;48.880;8.328;2023-07-20T13:05:54;1.90;;;1.50;;
7031;SDS011;3557;48.880;8.328;2023-07-20T13:08:21;2.03;;;1.30;;
7031;SDS011;3557;48.880;8.328;2023-07-20T13:10:50;1.50;;;1.40;;
7031;SDS011;3557;48.880;8.328;2023-07-20T13:13:18;1.67;;;1.30;;
7031;SDS011;3557;48.880;8.328;2023-07-20T13:15:45;2.38;;;1.58;;
7031;SDS011;3557;48.880;8.328;2023-07-20T13:18:13;1.58;;;1.30;;
7031;SDS011;3557;48.880;8.328;2023-07-20T13:20:41;2.28;;;1.50;;
7031;SDS011;3557;48.880;8.328;2023-07-20T13:23:10;1.63;;;1.23;;
7031;SDS011;3557;48.880;8.328;2023-07-20T13:25:37;1.83;;;1.50;;
7031;SDS011;3557;48.880;8.328;2023-07-20T13:28:04;1.63;;;1.40;;
7031;SDS011;3557;48.880;8.328;2023-07-20T13:30:32;2.08;;;1.30;;
7031;SDS011;3557;48.880;8.328;2023-07-20T13:32:59;2.67;;;1.40;;
7031;SDS011;3557;48.880;8.328;2023-07-20T13:35:27;3.58;;;1.30;;
7031;SDS011;3557;48.880;8.328;2023-07-20T13:37:54;4.72;;;1.48;;
7031;SDS011;3557;48.880;8.328;2023-07-20T13:40:23;1.77;;;1.40;;
7031;SDS011;3557;48.880;8.328;2023-07-20T13:42:50;1.40;;;1.30;;
7031;SDS011;3557;48.880;8.328;2023-07-20T13:45:18;4.10;;;1.40;;
7031;SDS011;3557;48.880;8.328;2023-07-20T13:47:45;1.50;;;1.38;;
7031;SDS011;3557;48.880;8.328;2023-07-20T13:50:12;2.15;;;1.80;;
7031;SDS011;3557;48.880;8.328;2023-07-20T13:52:40;2.25;;;1.30;;
7031;SDS011;3557;48.880;8.328;2023-07-20T13:55:07;6.45;;;1.63;;
7031;SDS011;3557;48.880;8.328;2023-07-20T13:57:36;1.70;;;1.40;;
7031;SDS011;3557;48.880;8.328;2023-07-20T14:00:04;2.88;;;1.50;;
7031;SDS011;3557;48.880;8.328;2023-07-20T14:02:40;2.65;;;1.45;;
7031;SDS011;3557;48.880;8.328;2023-07-20T14:05:08;1.60;;;1.50;;
7031;SDS011;3557;48.880;8.328;2023-07-20T14:07:35;2.33;;;1.42;;
7031;SDS011;3557;48.880;8.328;2023-07-20T14:10:03;2.75;;;1.50;;
7031;SDS011;3557;48.880;8.328;2023-07-20T14:12:31;1.67;;;1.42;;
7031;SDS011;3557;48.880;8.328;2023-07-20T14:15:00;1.45;;;1.35;;
7031;SDS011;3557;48.880;8.328;2023-07-20T14:17:29;1.60;;;1.50;;
7031;SDS011;3557;48.880;8.328;2023-07-20T14:19:56;2.50;;;1.35;;
7031;SDS011;3557;48.880;8.328;2023-07-20T14:22:23;1.73;;;1.45;;
7031;SDS011;3557;48.880;8.328;2023-07-20T14:24:51;1.60;;;1.50;;
7031;SDS011;3557;48.880;8.328;2023-07-20T14:27:18;3.42;;;1.55;;
7031;SDS011;3557;48.880;8.328;2023-07-20T14:29:45;2.55;;;1.50;;
7031;SDS011;3557;48.880;8.328;2023-07-20T14:32:14;2.38;;;1.40;;
7031;SDS011;3557;48.880;8.328;2023-07-20T14:34:42;3.70;;;1.40;;
7031;SDS011;3557;48.880;8.328;2023-07-20T14:37:09;1.30;;;1.20;;
7031;SDS011;3557;48.880;8.328;2023-07-20T14:39:38;2.03;;;1.50;;
7031;SDS011;3557;48.880;8.328;2023-07-20T14:42:05;1.95;;;1.50;;
7031;SDS011;3557;48.880;8.328;2023-07-20T14:44:33;1.83;;;1.42;;
7031;SDS011;3557;48.880;8.328;2023-07-20T14:47:01;2.50;;;1.50;;
7031;SDS011;3557;48.880;8.328;2023-07-20T14:49:29;3.63;;;1.45;;
7031;SDS011;3557;48.880;8.328;2023-07-20T14:51:57;2.95;;;1.50;;
7031;SDS011;3557;48.880;8.328;2023-07-20T14:54:24;2.38;;;1.45;;
7031;SDS011;3557;48.880;8.328;2023-07-20T14:56:52;1.75;;;1.65;;
7031;SDS011;3557;48.880;8.328;2023-07-20T14:59:19;1.50;;;1.40;;
7031;SDS011;3557;48.880;8.328;2023-07-20T15:01:47;3.17;;;1.42;;
7031;SDS011;3557;48.880;8.328;2023-07-20T15:04:14;2.30;;;1.65;;
7031;SDS011;3557;48.880;8.328;2023-07-20T15:06:43;2.55;;;1.80;;
7031;SDS011;3557;48.880;8.328;2023-07-20T15:09:10;2.58;;;1.40;;
7031;SDS011;3557;48.880;8.328;2023-07-20T15:11:38;1.75;;;1.50;;
7031;SDS011;3557;48.880;8.328;2023-07-20T15:14:05;1.60;;;1.50;;
7031;SDS011;3557;48.880;8.328;2023-07-20T15:16:32;3.00;;;1.60;;
7031;SDS011;3557;48.880;8.328;2023-07-20T15:19:00;1.85;;;1.40;;
7031;SDS011;3557;48.880;8.328;2023-07-20T15:21:28;2.03;;;1.30;;
7031;SDS011;3557;48.880;8.328;2023-07-20T15:23:57;1.67;;;1.58;;
7031;SDS011;3557;48.880;8.328;2023-07-20T15:26:25;2.50;;;1.40;;
7031;SDS011;3557;48.880;8.328;2023-07-20T15:28:52;3.95;;;1.70;;
7031;SDS011;3557;48.880;8.328;2023-07-20T15:31:20;2.88;;;1.27;;